sensor_id;sensor_type;location;lat;lon;timestamp;temperature;humidity
12233;DHT22;6179;51.748;8.728;2022-08-19T00:03:58;20.50;97.20
12233;DHT22;6179;51.748;8.728;2022-08-19T00:10:07;20.30;97.70
12233;DHT22;6179;51.748;8.728;2022-08-19T00:16:08;20.30;97.50
12233;DHT22;6179;51.748;8.728;2022-08-19T00:22:09;20.20;97.90
12233;DHT22;6179;51.748;8.728;2022-08-19T00:28:10;20.20;97.80
12233;DHT22;6179;51.748;8.728;2022-08-19T00:34:13;20.20;98.10
12233;DHT22;6179;51.748;8.728;2022-08-19T00:40:15;20.30;97.30
12233;DHT22;6179;51.748;8.728;2022-08-19T00:46:16;20.10;98.10
12233;DHT22;6179;51.748;8.728;2022-08-19T00:52:29;20.00;98.30
12233;DHT22;6179;51.748;8.728;2022-08-19T00:58:35;19.90;98.30
12233;DHT22;6179;51.748;8.728;2022-08-19T01:04:36;19.90;98.30
12233;DHT22;6179;51.748;8.728;2022-08-19T01:10:41;19.80;98.30
12233;DHT22;6179;51.748;8.728;2022-08-19T01:16:45;19.70;98.30
12233;DHT22;6179;51.748;8.728;2022-08-19T01:22:50;19.60;98.30
12233;DHT22;6179;51.748;8.728;2022-08-19T01:28:56;19.60;98.30
12233;DHT22;6179;51.748;8.728;2022-08-19T01:34:58;19.70;98.30
12233;DHT22;6179;51.748;8.728;2022-08-19T01:41:02;19.60;98.30
12233;DHT22;6179;51.748;8.728;2022-08-19T01:47:03;19.50;98.30
12233;DHT22;6179;51.748;8.728;2022-08-19T01:53:08;19.40;98.30
12233;DHT22;6179;51.748;8.728;2022-08-19T01:59:19;19.20;98.30
12233;DHT22;6179;51.748;8.728;2022-08-19T02:05:22;19.30;98.30
12233;DHT22;6179;51.748;8.728;2022-08-19T02:11:28;19.30;98.30
12233;DHT22;6179;51.748;8.728;2022-08-19T02:17:35;19.20;98.30
12233;DHT22;6179;51.748;8.728;2022-08-19T02:23:37;19.30;98.30
12233;DHT22;6179;51.748;8.728;2022-08-19T02:29:39;19.00;98.30
12233;DHT22;6179;51.748;8.728;2022-08-19T02:35:44;19.00;98.30
12233;DHT22;6179;51.748;8.728;2022-08-19T02:41:46;19.00;98.30
12233;DHT22;6179;51.748;8.728;2022-08-19T02:47:47;18.90;98.30
12233;DHT22;6179;51.748;8.728;2022-08-19T02:53:48;19.20;98.30
12233;DHT22;6179;51.748;8.728;2022-08-19T02:59:49;19.00;98.30
12233;DHT22;6179;51.748;8.728;2022-08-19T03:05:50;18.70;98.30
12233;DHT22;6179;51.748;8.728;2022-08-19T03:11:51;18.50;98.30
12233;DHT22;6179;51.748;8.728;2022-08-19T03:17:52;18.40;98.30
12233;DHT22;6179;51.748;8.728;2022-08-19T03:23:57;18.40;98.30
12233;DHT22;6179;51.748;8.728;2022-08-19T03:30:00;18.30;98.30
12233;DHT22;6179;51.748;8.728;2022-08-19T03:42:13;18.20;98.30
12233;DHT22;6179;51.748;8.728;2022-08-19T03:48:14;18.10;98.30
12233;DHT22;6179;51.748;8.728;2022-08-19T03:54:19;18.00;98.30
12233;DHT22;6179;51.748;8.728;2022-08-19T04:00:23;17.90;98.30
12233;DHT22;6179;51.748;8.728;2022-08-19T04:06:27;18.00;98.30
12233;DHT22;6179;51.748;8.728;2022-08-19T04:12:35;17.80;98.30
12233;DHT22;6179;51.748;8.728;2022-08-19T04:18:38;17.80;98.30
12233;DHT22;6179;51.748;8.728;2022-08-19T04:24:39;17.70;98.30
12233;DHT22;6179;51.748;8.728;2022-08-19T04:30:46;17.80;98.30
12233;DHT22;6179;51.748;8.728;2022-08-19T04:36:49;17.90;98.30
12233;DHT22;6179;51.748;8.728;2022-08-19T04:42:52;17.80;98.30
12233;DHT22;6179;51.748;8.728;2022-08-19T04:48:53;17.60;98.30
12233;DHT22;6179;51.748;8.728;2022-08-19T04:54:57;17.80;98.30
12233;DHT22;6179;51.748;8.728;2022-08-19T05:00:58;17.80;98.30
12233;DHT22;6179;51.748;8.728;2022-08-19T05:07:00;17.60;98.30
12233;DHT22;6179;51.748;8.728;2022-08-19T05:13:01;17.60;98.30
12233;DHT22;6179;51.748;8.728;2022-08-19T05:19:02;17.90;98.30
12233;DHT22;6179;51.748;8.728;2022-08-19T05:25:22;18.00;98.30
12233;DHT22;6179;51.748;8.728;2022-08-19T05:31:25;18.10;98.30
12233;DHT22;6179;51.748;8.728;2022-08-19T05:37:26;18.00;98.30
12233;DHT22;6179;51.748;8.728;2022-08-19T05:43:27;18.30;98.30
12233;DHT22;6179;51.748;8.728;2022-08-19T05:49:30;18.40;98.30
12233;DHT22;6179;51.748;8.728;2022-08-19T05:55:33;18.80;98.30
12233;DHT22;6179;51.748;8.728;2022-08-19T06:01:36;18.80;98.30
12233;DHT22;6179;51.748;8.728;2022-08-19T06:07:39;18.70;98.30
12233;DHT22;6179;51.748;8.728;2022-08-19T06:13:40;19.30;98.30
12233;DHT22;6179;51.748;8.728;2022-08-19T06:19:41;18.90;98.30
12233;DHT22;6179;51.748;8.728;2022-08-19T06:25:44;19.10;98.30
12233;DHT22;6179;51.748;8.728;2022-08-19T06:31:50;19.20;98.30
12233;DHT22;6179;51.748;8.728;2022-08-19T06:37:53;19.40;98.30
12233;DHT22;6179;51.748;8.728;2022-08-19T06:43:55;19.40;98.30
12233;DHT22;6179;51.748;8.728;2022-08-19T06:49:57;19.20;98.30
12233;DHT22;6179;51.748;8.728;2022-08-19T06:56:02;19.40;98.30
12233;DHT22;6179;51.748;8.728;2022-08-19T07:02:04;19.80;98.30
12233;DHT22;6179;51.748;8.728;2022-08-19T07:08:06;19.50;98.30
12233;DHT22;6179;51.748;8.728;2022-08-19T07:14:07;19.90;98.30
12233;DHT22;6179;51.748;8.728;2022-08-19T07:20:09;20.00;98.30
12233;DHT22;6179;51.748;8.728;2022-08-19T07:26:20;20.20;98.10
12233;DHT22;6179;51.748;8.728;2022-08-19T07:32:25;20.10;98.30
12233;DHT22;6179;51.748;8.728;2022-08-19T07:38:27;20.30;98.30
12233;DHT22;6179;51.748;8.728;2022-08-19T07:44:27;20.60;98.00
12233;DHT22;6179;51.748;8.728;2022-08-19T07:50:28;20.70;97.70
12233;DHT22;6179;51.748;8.728;2022-08-19T07:56:29;20.80;97.20
12233;DHT22;6179;51.748;8.728;2022-08-19T08:02:30;20.70;97.30
12233;DHT22;6179;51.748;8.728;2022-08-19T08:08:31;20.70;97.50
12233;DHT22;6179;51.748;8.728;2022-08-19T08:14:53;21.30;95.00
12233;DHT22;6179;51.748;8.728;2022-08-19T08:20:56;21.00;96.60
12233;DHT22;6179;51.748;8.728;2022-08-19T08:26:59;21.10;95.30
12233;DHT22;6179;51.748;8.728;2022-08-19T08:33:01;22.10;92.40
12233;DHT22;6179;51.748;8.728;2022-08-19T08:39:02;22.80;92.20
12233;DHT22;6179;51.748;8.728;2022-08-19T08:45:12;22.50;90.80
12233;DHT22;6179;51.748;8.728;2022-08-19T08:51:31;22.70;90.10
12233;DHT22;6179;51.748;8.728;2022-08-19T09:03:55;23.30;87.60
12233;DHT22;6179;51.748;8.728;2022-08-19T09:10:19;23.00;87.70
12233;DHT22;6179;51.748;8.728;2022-08-19T09:16:22;22.90;89.30
12233;DHT22;6179;51.748;8.728;2022-08-19T09:22:27;23.80;86.80
12233;DHT22;6179;51.748;8.728;2022-08-19T09:28:30;23.90;85.80
12233;DHT22;6179;51.748;8.728;2022-08-19T09:34:32;23.80;85.90
12233;DHT22;6179;51.748;8.728;2022-08-19T09:40:33;23.80;83.90
12233;DHT22;6179;51.748;8.728;2022-08-19T09:46:34;24.30;81.40
12233;DHT22;6179;51.748;8.728;2022-08-19T09:52:36;24.60;81.10
12233;DHT22;6179;51.748;8.728;2022-08-19T09:58:38;24.70;80.20
12233;DHT22;6179;51.748;8.728;2022-08-19T10:04:40;25.00;79.60
12233;DHT22;6179;51.748;8.728;2022-08-19T10:11:00;25.10;79.20
12233;DHT22;6179;51.748;8.728;2022-08-19T10:17:02;25.00;77.30
12233;DHT22;6179;51.748;8.728;2022-08-19T10:23:03;24.70;78.60
12233;DHT22;6179;51.748;8.728;2022-08-19T10:29:05;25.40;77.40
12233;DHT22;6179;51.748;8.728;2022-08-19T10:35:06;25.50;75.90
12233;DHT22;6179;51.748;8.728;2022-08-19T10:41:12;24.90;76.40
12233;DHT22;6179;51.748;8.728;2022-08-19T10:47:15;25.50;76.60
12233;DHT22;6179;51.748;8.728;2022-08-19T10:53:16;25.50;77.10
12233;DHT22;6179;51.748;8.728;2022-08-19T10:59:23;25.00;76.90
12233;DHT22;6179;51.748;8.728;2022-08-19T11:05:26;25.30;76.30
12233;DHT22;6179;51.748;8.728;2022-08-19T11:11:27;25.40;77.70
12233;DHT22;6179;51.748;8.728;2022-08-19T11:17:28;25.50;76.40
12233;DHT22;6179;51.748;8.728;2022-08-19T11:23:31;24.80;79.00
12233;DHT22;6179;51.748;8.728;2022-08-19T11:29:32;25.00;77.90
12233;DHT22;6179;51.748;8.728;2022-08-19T11:35:39;25.30;76.30
12233;DHT22;6179;51.748;8.728;2022-08-19T11:41:41;26.00;74.10
12233;DHT22;6179;51.748;8.728;2022-08-19T11:47:42;25.80;75.50
12233;DHT22;6179;51.748;8.728;2022-08-19T11:53:45;25.20;75.40
12233;DHT22;6179;51.748;8.728;2022-08-19T11:59:51;25.40;74.70
12233;DHT22;6179;51.748;8.728;2022-08-19T12:05:52;26.30;71.10
12233;DHT22;6179;51.748;8.728;2022-08-19T12:11:53;27.00;68.50
12233;DHT22;6179;51.748;8.728;2022-08-19T12:17:56;27.00;65.60
12233;DHT22;6179;51.748;8.728;2022-08-19T12:23:59;27.10;64.40
12233;DHT22;6179;51.748;8.728;2022-08-19T12:30:03;27.60;64.10
12233;DHT22;6179;51.748;8.728;2022-08-19T12:36:08;27.70;61.10
12233;DHT22;6179;51.748;8.728;2022-08-19T12:42:11;27.60;61.60
12233;DHT22;6179;51.748;8.728;2022-08-19T12:48:14;27.50;62.40
12233;DHT22;6179;51.748;8.728;2022-08-19T12:54:15;27.70;61.90
12233;DHT22;6179;51.748;8.728;2022-08-19T13:00:18;27.80;62.50
12233;DHT22;6179;51.748;8.728;2022-08-19T13:06:21;28.20;61.30
12233;DHT22;6179;51.748;8.728;2022-08-19T13:12:23;28.00;63.10
12233;DHT22;6179;51.748;8.728;2022-08-19T13:18:24;27.80;63.30
12233;DHT22;6179;51.748;8.728;2022-08-19T13:24:25;27.90;63.00
12233;DHT22;6179;51.748;8.728;2022-08-19T13:30:26;28.00;62.20
12233;DHT22;6179;51.748;8.728;2022-08-19T13:36:46;27.50;63.10
12233;DHT22;6179;51.748;8.728;2022-08-19T13:42:49;27.20;64.40
12233;DHT22;6179;51.748;8.728;2022-08-19T13:48:52;27.10;65.40
12233;DHT22;6179;51.748;8.728;2022-08-19T13:54:53;26.90;66.60
12233;DHT22;6179;51.748;8.728;2022-08-19T14:00:54;27.30;66.80
12233;DHT22;6179;51.748;8.728;2022-08-19T14:06:55;27.50;66.40
12233;DHT22;6179;51.748;8.728;2022-08-19T14:12:57;27.70;66.00
12233;DHT22;6179;51.748;8.728;2022-08-19T14:18:59;27.60;67.00
12233;DHT22;6179;51.748;8.728;2022-08-19T14:25:00;27.90;65.00
12233;DHT22;6179;51.748;8.728;2022-08-19T14:31:01;28.50;63.70
12233;DHT22;6179;51.748;8.728;2022-08-19T14:37:03;28.30;63.20
12233;DHT22;6179;51.748;8.728;2022-08-19T14:43:04;28.70;63.10
12233;DHT22;6179;51.748;8.728;2022-08-19T14:49:05;29.00;62.80
12233;DHT22;6179;51.748;8.728;2022-08-19T14:55:07;28.40;62.00
12233;DHT22;6179;51.748;8.728;2022-08-19T15:01:09;28.40;63.40
12233;DHT22;6179;51.748;8.728;2022-08-19T15:07:11;28.00;63.00
12233;DHT22;6179;51.748;8.728;2022-08-19T15:13:12;27.80;64.30
12233;DHT22;6179;51.748;8.728;2022-08-19T15:19:13;27.10;65.60
12233;DHT22;6179;51.748;8.728;2022-08-19T15:25:16;27.40;65.40
12233;DHT22;6179;51.748;8.728;2022-08-19T15:31:20;27.10;66.50
12233;DHT22;6179;51.748;8.728;2022-08-19T15:37:22;28.10;64.80
12233;DHT22;6179;51.748;8.728;2022-08-19T15:43:23;28.80;64.20
12233;DHT22;6179;51.748;8.728;2022-08-19T15:49:24;28.80;62.90
12233;DHT22;6179;51.748;8.728;2022-08-19T15:55:31;29.00;61.40
12233;DHT22;6179;51.748;8.728;2022-08-19T16:01:34;28.70;60.80
12233;DHT22;6179;51.748;8.728;2022-08-19T16:07:53;28.10;62.80
12233;DHT22;6179;51.748;8.728;2022-08-19T16:13:56;28.30;61.10
12233;DHT22;6179;51.748;8.728;2022-08-19T16:19:57;28.10;62.30
12233;DHT22;6179;51.748;8.728;2022-08-19T16:25:58;28.30;62.90
12233;DHT22;6179;51.748;8.728;2022-08-19T16:32:00;29.60;62.50
12233;DHT22;6179;51.748;8.728;2022-08-19T16:38:04;29.50;59.30
12233;DHT22;6179;51.748;8.728;2022-08-19T16:44:07;28.70;60.20
12233;DHT22;6179;51.748;8.728;2022-08-19T16:50:10;27.60;64.10
12233;DHT22;6179;51.748;8.728;2022-08-19T16:56:11;27.70;63.40
12233;DHT22;6179;51.748;8.728;2022-08-19T17:02:12;27.50;64.00
12233;DHT22;6179;51.748;8.728;2022-08-19T17:08:15;27.00;66.90
12233;DHT22;6179;51.748;8.728;2022-08-19T17:14:16;27.50;64.60
12233;DHT22;6179;51.748;8.728;2022-08-19T17:20:19;27.90;63.20
12233;DHT22;6179;51.748;8.728;2022-08-19T17:26:21;27.50;65.50
12233;DHT22;6179;51.748;8.728;2022-08-19T17:32:22;27.60;66.40
12233;DHT22;6179;51.748;8.728;2022-08-19T17:38:23;27.60;65.20
12233;DHT22;6179;51.748;8.728;2022-08-19T17:44:25;27.00;68.50
12233;DHT22;6179;51.748;8.728;2022-08-19T17:50:27;27.10;68.20
12233;DHT22;6179;51.748;8.728;2022-08-19T17:56:28;26.90;68.60
12233;DHT22;6179;51.748;8.728;2022-08-19T18:02:29;26.90;68.30
12233;DHT22;6179;51.748;8.728;2022-08-19T18:08:30;26.70;67.60
12233;DHT22;6179;51.748;8.728;2022-08-19T18:14:36;26.10;68.60
12233;DHT22;6179;51.748;8.728;2022-08-19T18:20:38;25.70;70.10
12233;DHT22;6179;51.748;8.728;2022-08-19T18:26:40;25.60;70.20
12233;DHT22;6179;51.748;8.728;2022-08-19T18:32:42;25.30;71.60
12233;DHT22;6179;51.748;8.728;2022-08-19T18:38:44;25.30;71.10
12233;DHT22;6179;51.748;8.728;2022-08-19T18:45:05;24.70;73.40
12233;DHT22;6179;51.748;8.728;2022-08-19T18:51:25;24.70;73.70
12233;DHT22;6179;51.748;8.728;2022-08-19T18:57:29;24.70;73.20
12233;DHT22;6179;51.748;8.728;2022-08-19T19:03:30;24.50;74.30
12233;DHT22;6179;51.748;8.728;2022-08-19T19:09:31;24.30;75.30
12233;DHT22;6179;51.748;8.728;2022-08-19T19:15:32;24.20;75.20
12233;DHT22;6179;51.748;8.728;2022-08-19T19:21:34;23.90;76.00
12233;DHT22;6179;51.748;8.728;2022-08-19T19:27:35;23.70;77.00
12233;DHT22;6179;51.748;8.728;2022-08-19T19:33:35;23.50;78.00
12233;DHT22;6179;51.748;8.728;2022-08-19T19:39:36;23.50;78.30
12233;DHT22;6179;51.748;8.728;2022-08-19T19:45:37;23.30;79.10
12233;DHT22;6179;51.748;8.728;2022-08-19T19:51:40;23.20;79.80
12233;DHT22;6179;51.748;8.728;2022-08-19T19:57:41;23.10;80.80
12233;DHT22;6179;51.748;8.728;2022-08-19T20:03:43;23.00;81.20
12233;DHT22;6179;51.748;8.728;2022-08-19T20:09:44;23.10;80.40
12233;DHT22;6179;51.748;8.728;2022-08-19T20:15:45;23.10;80.80
12233;DHT22;6179;51.748;8.728;2022-08-19T20:21:47;23.10;81.00
12233;DHT22;6179;51.748;8.728;2022-08-19T20:27:49;23.20;81.50
12233;DHT22;6179;51.748;8.728;2022-08-19T20:33:50;23.20;80.80
12233;DHT22;6179;51.748;8.728;2022-08-19T20:39:51;23.30;80.50
12233;DHT22;6179;51.748;8.728;2022-08-19T20:45:53;23.30;79.60
12233;DHT22;6179;51.748;8.728;2022-08-19T20:51:55;23.60;78.70
12233;DHT22;6179;51.748;8.728;2022-08-19T20:57:56;23.60;78.80
12233;DHT22;6179;51.748;8.728;2022-08-19T21:03:58;23.50;78.50
12233;DHT22;6179;51.748;8.728;2022-08-19T21:09:58;23.50;79.10
12233;DHT22;6179;51.748;8.728;2022-08-19T21:16:00;23.50;78.20
12233;DHT22;6179;51.748;8.728;2022-08-19T21:22:01;23.60;77.80
12233;DHT22;6179;51.748;8.728;2022-08-19T21:28:03;23.50;76.50
12233;DHT22;6179;51.748;8.728;2022-08-19T21:34:04;23.50;77.20
12233;DHT22;6179;51.748;8.728;2022-08-19T21:40:06;23.30;78.00
12233;DHT22;6179;51.748;8.728;2022-08-19T21:46:08;23.20;78.90
12233;DHT22;6179;51.748;8.728;2022-08-19T21:52:09;23.00;80.10
12233;DHT22;6179;51.748;8.728;2022-08-19T21:58:10;22.80;81.10
12233;DHT22;6179;51.748;8.728;2022-08-19T22:04:11;22.90;81.20
12233;DHT22;6179;51.748;8.728;2022-08-19T22:10:11;22.80;81.90
12233;DHT22;6179;51.748;8.728;2022-08-19T22:16:12;22.70;82.10
12233;DHT22;6179;51.748;8.728;2022-08-19T22:22:26;22.70;82.20
12233;DHT22;6179;51.748;8.728;2022-08-19T22:28:29;22.60;82.70
12233;DHT22;6179;51.748;8.728;2022-08-19T22:34:30;22.40;82.60
12233;DHT22;6179;51.748;8.728;2022-08-19T22:40:31;22.50;82.50
12233;DHT22;6179;51.748;8.728;2022-08-19T22:46:36;22.50;83.10
12233;DHT22;6179;51.748;8.728;2022-08-19T22:52:37;22.20;84.40
12233;DHT22;6179;51.748;8.728;2022-08-19T22:58:38;22.00;85.10
12233;DHT22;6179;51.748;8.728;2022-08-19T23:04:39;22.20;84.80
12233;DHT22;6179;51.748;8.728;2022-08-19T23:10:40;22.20;84.40
12233;DHT22;6179;51.748;8.728;2022-08-19T23:16:42;22.30;84.10
12233;DHT22;6179;51.748;8.728;2022-08-19T23:22:46;22.30;84.20
12233;DHT22;6179;51.748;8.728;2022-08-19T23:28:48;21.90;85.90
12233;DHT22;6179;51.748;8.728;2022-08-19T23:35:08;21.80;86.00
12233;DHT22;6179;51.748;8.728;2022-08-19T23:41:10;21.70;86.70
12233;DHT22;6179;51.748;8.728;2022-08-19T23:47:12;21.70;87.30
12233;DHT22;6179;51.748;8.728;2022-08-19T23:53:14;21.70;87.50
12233;DHT22;6179;51.748;8.728;2022-08-19T23:59:15;21.80;87.10
